createdAt,value
2017-06-15T00:01:25.497Z,5.27
2017-06-15T00:03:53.034Z,6.30
2017-06-15T00:06:20.565Z,5.80
2017-06-15T00:08:48.146Z,4.93
2017-06-15T00:11:15.736Z,7.80
2017-06-15T00:13:43.286Z,5.17
2017-06-15T00:16:10.917Z,4.93
2017-06-15T00:18:38.496Z,7.10
2017-06-15T00:21:06.040Z,7.00
2017-06-15T00:23:33.634Z,5.67
2017-06-15T00:26:01.226Z,5.70
2017-06-15T00:28:28.946Z,7.83
2017-06-15T00:30:56.542Z,6.60
2017-06-15T00:33:24.073Z,6.07
2017-06-15T00:35:51.614Z,6.17
2017-06-15T00:38:19.196Z,8.57
2017-06-15T00:40:46.747Z,5.07
2017-06-15T00:43:14.285Z,5.63
2017-06-15T00:45:41.915Z,5.07
2017-06-15T00:48:09.487Z,8.03
2017-06-15T00:50:37.059Z,7.03
2017-06-15T00:53:04.925Z,5.90
2017-06-15T00:55:32.469Z,14.20
2017-06-15T00:58:00.008Z,9.23
2017-06-15T01:00:27.613Z,5.20
2017-06-15T01:02:55.163Z,6.20
2017-06-15T01:05:22.731Z,7.40
2017-06-15T01:07:50.349Z,8.83
2017-06-15T01:10:17.892Z,6.40
2017-06-15T01:12:45.465Z,6.70
2017-06-15T01:15:13.121Z,7.47
2017-06-15T01:17:40.654Z,5.70
2017-06-15T01:20:08.222Z,7.63
2017-06-15T01:22:35.800Z,5.73
2017-06-15T01:25:03.333Z,8.60
2017-06-15T01:27:30.961Z,7.03
2017-06-15T01:29:58.579Z,6.13
2017-06-15T01:32:26.141Z,7.73
2017-06-15T01:34:53.684Z,5.87
2017-06-15T01:37:21.267Z,7.07
2017-06-15T01:39:48.857Z,7.77
2017-06-15T01:42:16.401Z,7.37
2017-06-15T01:44:43.945Z,12.70
2017-06-15T01:47:11.559Z,7.07
2017-06-15T01:49:39.121Z,7.27
2017-06-15T01:52:06.645Z,6.10
2017-06-15T01:54:35.024Z,7.43
2017-06-15T01:57:02.551Z,9.70
2017-06-15T01:59:30.106Z,7.50
2017-06-15T02:01:57.735Z,13.20
2017-06-15T02:04:25.272Z,8.60
2017-06-15T02:06:53.311Z,6.03
2017-06-15T02:09:20.878Z,6.93
2017-06-15T02:11:48.408Z,7.73
2017-06-15T02:14:15.970Z,10.23
2017-06-15T02:16:43.545Z,8.10
2017-06-15T02:19:11.074Z,6.77
2017-06-15T02:21:38.616Z,7.17
2017-06-15T02:24:06.184Z,6.40
2017-06-15T02:26:33.715Z,8.70
2017-06-15T02:29:01.586Z,7.00
2017-06-15T02:31:29.147Z,7.50
2017-06-15T02:33:56.676Z,10.80
2017-06-15T02:36:24.224Z,7.60
2017-06-15T02:38:51.793Z,10.17
2017-06-15T02:41:19.330Z,8.00
2017-06-15T02:43:46.868Z,6.70
2017-06-15T02:46:14.445Z,7.27
2017-06-15T02:48:41.985Z,7.00
2017-06-15T02:51:09.532Z,7.93
2017-06-15T02:53:37.123Z,6.80
2017-06-15T02:56:04.673Z,6.67
2017-06-15T02:58:32.216Z,6.70
2017-06-15T03:00:59.893Z,8.30
2017-06-15T03:03:27.466Z,6.87
2017-06-15T03:05:55.013Z,9.63
2017-06-15T03:08:22.599Z,7.73
2017-06-15T03:10:50.125Z,8.30
2017-06-15T03:13:17.657Z,7.37
2017-06-15T03:15:45.228Z,7.60
2017-06-15T03:18:12.766Z,10.00
2017-06-15T03:20:40.297Z,8.53
2017-06-15T03:23:08.045Z,15.57
2017-06-15T03:25:35.609Z,11.60
2017-06-15T03:28:03.146Z,9.67
2017-06-15T03:30:30.726Z,9.10
2017-06-15T03:32:58.255Z,11.30
2017-06-15T03:35:25.782Z,8.10
2017-06-15T03:37:53.344Z,7.73
2017-06-15T03:40:20.883Z,12.73
2017-06-15T03:42:48.421Z,9.63
2017-06-15T03:45:16.009Z,7.87
2017-06-15T03:47:43.539Z,9.23
2017-06-15T03:50:11.117Z,7.50
2017-06-15T03:52:38.711Z,9.23
2017-06-15T03:55:06.250Z,9.00
2017-06-15T03:57:33.791Z,8.80
2017-06-15T04:00:01.353Z,9.67
2017-06-15T04:02:28.929Z,8.70
2017-06-15T04:04:56.455Z,9.83
2017-06-15T04:07:24.002Z,8.10
2017-06-15T04:09:51.572Z,10.53
2017-06-15T04:12:19.178Z,11.70
2017-06-15T04:14:46.713Z,8.83
2017-06-15T04:17:14.292Z,11.30
2017-06-15T04:19:41.822Z,10.50
2017-06-15T04:22:09.390Z,11.20
2017-06-15T04:24:36.958Z,23.40
2017-06-15T04:27:04.493Z,20.40
2017-06-15T04:29:32.085Z,18.60
2017-06-15T04:31:59.685Z,14.57
2017-06-15T04:34:27.284Z,20.00
2017-06-15T04:36:54.816Z,21.33
2017-06-15T04:39:22.413Z,18.83
2017-06-15T04:41:49.963Z,12.07
2017-06-15T04:44:17.501Z,15.50
2017-06-15T04:46:45.087Z,14.10
2017-06-15T04:49:12.665Z,16.00
2017-06-15T04:51:40.217Z,18.87
2017-06-15T04:54:07.780Z,16.20
2017-06-15T04:56:35.330Z,12.93
2017-06-15T04:59:02.865Z,16.30
2017-06-15T05:01:30.496Z,13.27
2017-06-15T05:03:58.022Z,15.87
2017-06-15T05:06:25.548Z,10.30
2017-06-15T05:08:53.123Z,11.20
2017-06-15T05:11:20.660Z,13.30
2017-06-15T05:13:48.188Z,15.23
2017-06-15T05:16:15.758Z,13.00
2017-06-15T05:18:43.296Z,11.37
2017-06-15T05:21:10.834Z,12.83
2017-06-15T05:23:38.417Z,10.80
2017-06-15T05:26:05.953Z,15.03
2017-06-15T05:28:33.489Z,13.70
2017-06-15T05:31:01.065Z,13.20
2017-06-15T05:33:28.611Z,12.67
2017-06-15T05:35:56.167Z,16.87
2017-06-15T05:38:23.741Z,13.67
2017-06-15T05:40:51.269Z,13.30
2017-06-15T05:43:18.805Z,11.17
2017-06-15T05:45:46.376Z,18.47
2017-06-15T05:48:13.917Z,21.00
2017-06-15T05:50:41.445Z,20.07
2017-06-15T05:53:09.048Z,10.30
2017-06-15T05:55:36.582Z,10.17
2017-06-15T05:58:04.141Z,14.93
2017-06-15T06:00:31.723Z,14.20
2017-06-15T06:02:59.257Z,8.77
2017-06-15T06:05:26.796Z,13.50
2017-06-15T06:07:54.367Z,13.97
2017-06-15T06:10:21.993Z,9.20
2017-06-15T06:12:49.549Z,9.80
2017-06-15T06:15:17.125Z,21.53
2017-06-15T06:17:44.662Z,17.13
2017-06-15T06:20:12.213Z,11.67
2017-06-15T06:22:39.777Z,9.00
2017-06-15T06:25:07.317Z,14.40
2017-06-15T06:27:34.846Z,9.60
2017-06-15T06:30:02.409Z,11.40
2017-06-15T06:32:29.981Z,9.23
2017-06-15T06:34:57.509Z,8.07
2017-06-15T06:37:25.041Z,7.13
2017-06-15T06:39:52.605Z,9.20
2017-06-15T06:42:20.134Z,10.40
2017-06-15T06:44:47.662Z,9.30
2017-06-15T06:47:15.251Z,8.23
2017-06-15T06:49:42.773Z,7.80
2017-06-15T06:52:10.309Z,10.00
2017-06-15T06:54:37.876Z,7.43
2017-06-15T06:57:05.414Z,10.87
2017-06-15T06:59:33.020Z,6.83
2017-06-15T07:02:00.594Z,8.57
2017-06-15T07:04:28.120Z,9.13
2017-06-15T07:06:55.696Z,6.13
2017-06-15T07:09:23.267Z,5.30
2017-06-15T07:11:50.806Z,6.63
2017-06-15T07:14:18.332Z,8.60
2017-06-15T07:16:45.929Z,10.07
2017-06-15T07:19:13.457Z,4.63
2017-06-15T07:21:40.976Z,6.50
2017-06-15T07:24:08.532Z,5.60
2017-06-15T07:26:36.054Z,6.60
2017-06-15T07:29:03.584Z,11.63
2017-06-15T07:31:31.153Z,6.87
2017-06-15T07:33:58.688Z,5.23
2017-06-15T07:36:26.240Z,5.30
2017-06-15T07:38:53.815Z,7.80
2017-06-15T07:41:21.342Z,5.40
2017-06-15T07:43:48.859Z,6.07
2017-06-15T07:46:16.459Z,5.20
2017-06-15T07:48:43.981Z,6.20
2017-06-15T07:51:11.509Z,4.67
2017-06-15T07:53:39.081Z,5.83
2017-06-15T07:56:06.601Z,7.93
2017-06-15T07:58:34.133Z,6.23
2017-06-15T08:01:01.698Z,9.10
2017-06-15T08:03:29.220Z,4.80
2017-06-15T08:05:56.776Z,5.33
2017-06-15T08:08:24.368Z,4.67
2017-06-15T08:10:51.887Z,6.53
2017-06-15T08:13:19.429Z,5.07
2017-06-15T08:15:47.009Z,5.70
2017-06-15T08:18:14.549Z,4.77
2017-06-15T08:20:42.069Z,7.93
2017-06-15T08:23:09.633Z,5.63
2017-06-15T08:25:37.162Z,5.00
2017-06-15T08:28:04.691Z,5.23
2017-06-15T08:30:32.248Z,5.30
2017-06-15T08:32:59.773Z,4.47
2017-06-15T08:35:27.345Z,5.00
2017-06-15T08:37:54.903Z,7.87
2017-06-15T08:40:22.429Z,8.87
2017-06-15T08:42:49.963Z,5.60
2017-06-15T08:45:19.329Z,4.60
2017-06-15T08:47:46.852Z,5.10
2017-06-15T08:50:14.384Z,6.10
2017-06-15T08:52:41.948Z,7.63
2017-06-15T08:55:09.541Z,5.67
2017-06-15T08:57:37.090Z,6.50
2017-06-15T09:00:06.033Z,5.40
2017-06-15T09:02:33.571Z,6.40
2017-06-15T09:05:01.091Z,4.63
2017-06-15T09:07:28.680Z,6.70
2017-06-15T09:09:56.206Z,4.10
2017-06-15T09:12:23.746Z,6.50
2017-06-15T09:14:51.328Z,9.93
2017-06-15T09:17:18.866Z,5.37
2017-06-15T09:19:46.390Z,4.80
2017-06-15T09:22:13.949Z,4.97
2017-06-15T09:24:41.497Z,7.73
2017-06-15T09:27:09.028Z,5.00
2017-06-15T09:29:36.591Z,8.03
2017-06-15T09:32:04.496Z,9.07
2017-06-15T09:34:32.020Z,8.67
2017-06-15T09:36:59.547Z,5.90
2017-06-15T09:39:27.125Z,5.70
2017-06-15T09:41:54.693Z,4.50
2017-06-15T09:44:22.224Z,8.77
2017-06-15T09:46:49.799Z,7.50
2017-06-15T09:49:17.325Z,14.03
2017-06-15T09:51:44.856Z,8.03
2017-06-15T09:54:12.420Z,5.63
2017-06-15T09:56:39.952Z,4.23
2017-06-15T09:59:07.495Z,11.00
2017-06-15T10:01:35.059Z,4.87
2017-06-15T10:04:02.597Z,7.00
2017-06-15T10:06:30.154Z,7.30
2017-06-15T10:08:57.733Z,5.53
2017-06-15T10:11:26.206Z,4.27
2017-06-15T10:13:53.757Z,6.63
2017-06-15T10:16:21.338Z,4.57
2017-06-15T10:18:48.869Z,3.93
2017-06-15T10:21:16.395Z,4.20
2017-06-15T10:23:43.952Z,7.63
2017-06-15T10:26:11.484Z,4.30
2017-06-15T10:28:39.013Z,5.53
2017-06-15T10:31:06.569Z,6.13
2017-06-15T10:33:34.088Z,7.23
2017-06-15T10:36:01.621Z,5.87
2017-06-15T10:38:29.218Z,4.90
2017-06-15T10:40:56.779Z,5.03
2017-06-15T10:43:24.301Z,4.93
2017-06-15T10:45:51.864Z,6.53
2017-06-15T10:48:19.402Z,4.30
2017-06-15T10:50:47.078Z,4.17
2017-06-15T10:53:14.692Z,5.93
2017-06-15T10:55:42.233Z,4.30
2017-06-15T10:58:09.793Z,4.60
2017-06-15T11:00:37.430Z,3.80
2017-06-15T11:03:05.189Z,9.50
2017-06-15T11:05:32.877Z,4.60
2017-06-15T11:08:00.464Z,5.10
2017-06-15T11:10:27.994Z,4.30
2017-06-15T11:12:56.584Z,4.70
2017-06-15T11:15:24.170Z,4.00
2017-06-15T11:17:51.701Z,4.70
2017-06-15T11:20:19.252Z,4.13
2017-06-15T11:22:46.819Z,6.17
2017-06-15T11:25:14.384Z,5.50
2017-06-15T11:27:42.186Z,4.10
2017-06-15T11:30:09.865Z,5.60
2017-06-15T11:32:37.396Z,7.53
2017-06-15T11:35:04.937Z,5.20
2017-06-15T11:37:32.513Z,8.50
2017-06-15T11:40:00.066Z,11.73
2017-06-15T11:42:27.862Z,4.40
2017-06-15T11:44:55.471Z,7.30
2017-06-15T11:47:23.002Z,4.77
2017-06-15T11:49:50.535Z,4.63
2017-06-15T11:52:18.098Z,4.70
2017-06-15T11:54:45.609Z,5.13
2017-06-15T11:57:13.109Z,5.13
2017-06-15T11:59:40.633Z,5.57
2017-06-15T12:02:08.183Z,5.87
2017-06-15T12:04:35.732Z,5.50
2017-06-15T12:07:03.357Z,4.63
2017-06-15T12:09:30.901Z,4.63
2017-06-15T12:11:58.426Z,7.77
2017-06-15T12:14:27.066Z,4.37
2017-06-15T12:16:54.596Z,5.47
2017-06-15T12:19:22.108Z,5.67
2017-06-15T12:21:49.624Z,6.20
2017-06-15T12:24:17.169Z,5.53
2017-06-15T12:26:44.673Z,6.00
2017-06-15T12:29:12.194Z,10.87
2017-06-15T12:31:39.753Z,5.40
2017-06-15T12:34:07.257Z,6.00
2017-06-15T12:36:34.761Z,6.17
2017-06-15T12:39:02.307Z,4.20
2017-06-15T12:41:29.922Z,5.90
2017-06-15T12:43:57.425Z,7.07
2017-06-15T12:46:24.997Z,5.20
2017-06-15T12:48:52.505Z,4.90
2017-06-15T12:51:20.020Z,4.50
2017-06-15T12:53:48.021Z,10.03
2017-06-15T12:56:15.666Z,7.73
2017-06-15T12:58:43.188Z,4.93
2017-06-15T13:01:10.789Z,7.83
2017-06-15T13:03:38.345Z,7.53
2017-06-15T13:06:05.906Z,5.27
2017-06-15T13:08:33.476Z,8.73
2017-06-15T13:11:00.983Z,8.10
2017-06-15T13:13:28.608Z,6.17
2017-06-15T13:15:56.232Z,5.30
2017-06-15T13:18:23.743Z,4.80
2017-06-15T13:20:51.303Z,4.87
2017-06-15T13:23:18.864Z,6.27
2017-06-15T13:25:46.426Z,7.40
2017-06-15T13:28:13.985Z,5.87
2017-06-15T13:30:41.691Z,6.17
2017-06-15T13:33:09.266Z,7.87
2017-06-15T13:35:36.781Z,5.53
2017-06-15T13:38:04.390Z,6.10
2017-06-15T13:40:31.885Z,6.37
2017-06-15T13:42:59.380Z,5.40
2017-06-15T13:45:27.454Z,5.33
2017-06-15T13:47:55.103Z,9.27
2017-06-15T13:50:22.662Z,9.97
2017-06-15T13:52:50.564Z,8.90
2017-06-15T13:55:18.075Z,9.73
2017-06-15T13:57:45.585Z,7.30
2017-06-15T14:00:13.160Z,7.17
2017-06-15T14:02:40.719Z,7.43
2017-06-15T14:05:08.241Z,7.30
2017-06-15T14:07:35.882Z,7.13
2017-06-15T14:10:03.872Z,6.33
2017-06-15T14:12:31.407Z,6.60
2017-06-15T14:14:58.960Z,6.20
2017-06-15T14:17:26.500Z,10.07
2017-06-15T14:19:54.005Z,9.50
2017-06-15T14:22:21.550Z,12.70
2017-06-15T14:24:49.057Z,8.43
2017-06-15T14:27:16.590Z,6.17
2017-06-15T14:29:44.180Z,9.40
2017-06-15T14:32:11.735Z,8.30
2017-06-15T14:34:39.277Z,9.30
2017-06-15T14:37:06.903Z,8.20
2017-06-15T14:39:34.470Z,6.90
2017-06-15T14:42:01.983Z,6.53
2017-06-15T14:44:29.523Z,11.03
2017-06-15T14:46:57.072Z,8.63
2017-06-15T14:49:24.577Z,15.30
2017-06-15T14:51:52.090Z,6.27
2017-06-15T14:54:19.667Z,5.20
2017-06-15T14:56:47.182Z,10.37
2017-06-15T15:01:47.569Z,8.70
2017-06-15T15:04:15.073Z,9.27
2017-06-15T15:06:42.615Z,7.03
2017-06-15T15:09:21.976Z,6.23
2017-06-15T15:11:49.468Z,8.33
2017-06-15T15:14:16.969Z,13.33
2017-06-15T15:16:44.516Z,8.33
2017-06-15T15:19:12.016Z,9.20
2017-06-15T15:21:39.574Z,6.57
2017-06-15T15:24:07.125Z,9.30
2017-06-15T15:26:34.640Z,6.17
2017-06-15T15:29:02.149Z,7.93
2017-06-15T15:31:29.757Z,9.03
2017-06-15T15:33:57.264Z,6.17
2017-06-15T15:36:24.856Z,5.77
2017-06-15T15:38:52.393Z,7.97
2017-06-15T15:41:19.958Z,7.80
2017-06-15T15:43:47.535Z,9.03
2017-06-15T15:46:15.115Z,8.70
2017-06-15T15:48:42.702Z,10.50
2017-06-15T15:51:10.221Z,7.90
2017-06-15T15:53:37.771Z,12.07
2017-06-15T15:56:05.285Z,9.10
2017-06-15T15:58:32.807Z,6.50
2017-06-15T16:01:00.580Z,11.60
2017-06-15T16:03:28.087Z,7.67
2017-06-15T16:05:55.606Z,9.97
2017-06-15T16:08:23.163Z,14.30
2017-06-15T16:10:50.661Z,9.97
2017-06-15T16:13:18.325Z,8.40
2017-06-15T16:15:46.085Z,6.03
2017-06-15T16:18:13.609Z,7.90
2017-06-15T16:20:42.043Z,7.33
2017-06-15T16:23:09.651Z,13.37
2017-06-15T16:25:37.215Z,9.40
2017-06-15T16:28:04.738Z,12.13
2017-06-15T16:33:52.601Z,6.93
2017-06-15T16:36:20.173Z,7.60
2017-06-15T16:38:47.692Z,6.97
2017-06-15T16:41:15.250Z,7.60
2017-06-15T16:43:42.752Z,9.57
2017-06-15T16:46:10.271Z,9.90
2017-06-15T16:48:37.821Z,12.20
2017-06-15T16:51:05.313Z,9.17
2017-06-15T16:53:32.846Z,8.30
2017-06-15T16:56:00.393Z,8.90
2017-06-15T16:58:28.015Z,9.20
2017-06-15T17:00:56.503Z,13.97
2017-06-15T17:03:24.053Z,8.80
2017-06-15T17:05:51.586Z,8.53
2017-06-15T17:08:19.152Z,13.20
2017-06-15T17:10:46.654Z,8.00
2017-06-15T17:13:14.193Z,8.20
2017-06-15T17:15:41.760Z,8.40
2017-06-15T17:18:09.353Z,14.07
2017-06-15T17:20:36.864Z,12.70
2017-06-15T17:23:04.436Z,8.30
2017-06-15T17:25:31.937Z,9.27
2017-06-15T17:27:59.464Z,13.07
2017-06-15T17:30:27.122Z,10.80
2017-06-15T17:32:54.884Z,8.23
2017-06-15T17:35:22.446Z,9.60
2017-06-15T17:37:50.007Z,6.90
2017-06-15T17:40:17.518Z,8.80
2017-06-15T17:42:45.023Z,9.20
2017-06-15T17:45:12.585Z,7.97
2017-06-15T17:47:40.080Z,6.80
2017-06-15T17:50:07.576Z,7.53
2017-06-15T17:52:35.183Z,10.93
2017-06-15T17:55:10.891Z,8.20
2017-06-15T17:57:39.087Z,7.80
2017-06-15T18:00:09.983Z,20.67
2017-06-15T18:02:37.850Z,9.80
2017-06-15T18:05:05.385Z,11.13
2017-06-15T18:07:32.998Z,8.93
2017-06-15T18:10:00.502Z,12.10
2017-06-15T18:12:28.062Z,14.97
2017-06-15T18:14:55.670Z,11.53
2017-06-15T18:17:24.066Z,9.00
2017-06-15T18:19:51.652Z,10.40
2017-06-15T18:22:19.197Z,10.80
2017-06-15T18:24:46.854Z,8.37
2017-06-15T18:27:14.368Z,12.87
2017-06-15T18:29:41.972Z,8.27
2017-06-15T18:32:09.594Z,10.53
2017-06-15T18:34:37.110Z,12.87
2017-06-15T18:37:04.616Z,10.83
2017-06-15T18:39:32.370Z,11.17
2017-06-15T18:41:59.908Z,9.00
2017-06-15T18:44:27.496Z,10.20
2017-06-15T18:46:55.144Z,12.37
2017-06-15T18:49:22.706Z,21.20
2017-06-15T18:51:50.820Z,16.10
2017-06-15T18:54:18.424Z,7.80
2017-06-15T18:56:46.001Z,10.53
2017-06-15T18:59:13.534Z,8.77
2017-06-15T19:01:41.066Z,10.00
2017-06-15T19:04:08.581Z,9.43
2017-06-15T19:06:36.131Z,9.20
2017-06-15T19:09:03.730Z,10.80
2017-06-15T19:11:31.228Z,9.70
2017-06-15T19:13:58.803Z,10.20
2017-06-15T19:16:27.346Z,7.80
2017-06-15T19:18:54.978Z,10.10
2017-06-15T19:21:22.485Z,12.70
2017-06-15T19:23:50.047Z,8.73
2017-06-15T19:26:18.108Z,12.20
2017-06-15T19:28:45.631Z,10.83
2017-06-15T19:31:13.230Z,13.97
2017-06-15T19:33:41.121Z,13.93
2017-06-15T19:36:08.822Z,16.97
2017-06-15T19:38:36.365Z,21.00
2017-06-15T19:41:03.895Z,17.97
2017-06-15T19:43:31.404Z,19.93
2017-06-15T19:45:58.971Z,16.97
2017-06-15T19:48:26.475Z,21.00
2017-06-15T19:50:54.045Z,16.60
2017-06-15T19:53:21.614Z,18.03
2017-06-15T19:55:49.184Z,18.20
2017-06-15T19:58:16.715Z,16.17
2017-06-15T20:00:44.448Z,17.43
2017-06-15T20:03:11.964Z,15.33
2017-06-15T20:05:39.534Z,17.13
2017-06-15T20:08:07.108Z,15.23
2017-06-15T20:10:34.625Z,13.73
2017-06-15T20:13:02.148Z,16.03
2017-06-15T20:15:29.696Z,12.23
2017-06-15T20:17:57.207Z,7.80
2017-06-15T20:20:24.767Z,9.17
2017-06-15T20:22:52.329Z,15.07
2017-06-15T20:25:19.837Z,15.57
2017-06-15T20:27:47.350Z,12.47
2017-06-15T20:30:15.047Z,16.50
2017-06-15T20:32:42.627Z,12.40
2017-06-15T20:35:10.144Z,11.57
2017-06-15T20:37:37.678Z,8.93
2017-06-15T20:40:05.182Z,11.00
2017-06-15T20:42:32.738Z,9.23
2017-06-15T20:45:00.294Z,10.20
2017-06-15T20:47:27.840Z,12.73
2017-06-15T20:49:55.368Z,11.80
2017-06-15T20:52:22.924Z,11.53
2017-06-15T20:54:50.495Z,10.03
2017-06-15T20:57:18.005Z,11.57
2017-06-15T20:59:45.554Z,11.77
2017-06-15T21:02:13.119Z,14.03
2017-06-15T21:04:40.689Z,10.57
2017-06-15T21:07:08.214Z,10.50
2017-06-15T21:09:35.751Z,9.53
2017-06-15T21:12:03.292Z,9.90
2017-06-15T21:14:31.388Z,13.40
2017-06-15T21:16:58.956Z,11.10
2017-06-15T21:19:26.478Z,10.93
2017-06-15T21:21:53.989Z,13.77
2017-06-15T21:24:21.555Z,10.87
2017-06-15T21:26:49.088Z,11.17
2017-06-15T21:29:16.754Z,13.70
2017-06-15T21:31:44.312Z,8.90
2017-06-15T21:34:11.917Z,11.77
2017-06-15T21:36:39.538Z,11.43
2017-06-15T21:39:07.097Z,9.80
2017-06-15T21:41:34.626Z,9.03
2017-06-15T21:44:02.145Z,8.93
2017-06-15T21:46:29.705Z,16.00
2017-06-15T21:48:57.208Z,9.37
2017-06-15T21:51:24.768Z,11.03
2017-06-15T21:53:52.327Z,9.07
2017-06-15T21:56:19.849Z,8.23
2017-06-15T21:58:47.411Z,13.23
2017-06-15T22:01:14.959Z,8.97
2017-06-15T22:03:42.461Z,8.33
2017-06-15T22:06:09.976Z,7.90
2017-06-15T22:08:37.562Z,7.40
2017-06-15T22:11:05.085Z,15.40
2017-06-15T22:13:32.607Z,9.13
2017-06-15T22:16:00.541Z,8.00
2017-06-15T22:18:28.154Z,8.87
2017-06-15T22:20:55.861Z,21.60
2017-06-15T22:23:23.400Z,7.90
2017-06-15T22:25:50.910Z,9.03
2017-06-15T22:28:18.418Z,10.97
2017-06-15T22:30:46.025Z,11.23
2017-06-15T22:33:13.586Z,8.40
2017-06-15T22:35:41.146Z,8.87
2017-06-15T22:38:08.706Z,9.17
2017-06-15T22:40:36.201Z,8.60
2017-06-15T22:43:03.768Z,8.67
2017-06-15T22:45:31.326Z,8.40
2017-06-15T22:47:58.894Z,9.50
2017-06-15T22:50:26.429Z,10.77
2017-06-15T22:52:53.975Z,9.33
2017-06-15T22:55:21.494Z,9.03
2017-06-15T22:57:49.030Z,10.80
2017-06-15T23:00:16.566Z,8.80
2017-06-15T23:02:55.753Z,10.50
2017-06-15T23:05:23.278Z,9.80
2017-06-15T23:07:50.781Z,9.30
2017-06-15T23:10:18.336Z,9.03
2017-06-15T23:12:45.906Z,9.47
2017-06-15T23:15:13.417Z,10.87
2017-06-15T23:17:40.920Z,9.40
2017-06-15T23:20:08.452Z,8.93
2017-06-15T23:22:35.969Z,10.57
2017-06-15T23:25:03.526Z,9.17
2017-06-15T23:27:31.064Z,9.07
2017-06-15T23:29:58.623Z,9.23
2017-06-15T23:32:26.170Z,9.13
2017-06-15T23:34:53.676Z,9.67
2017-06-15T23:37:21.178Z,11.03
2017-06-15T23:39:48.721Z,8.60
2017-06-15T23:42:16.256Z,9.80
2017-06-15T23:44:43.780Z,8.40
2017-06-15T23:47:12.166Z,8.70
2017-06-15T23:49:39.735Z,8.63
2017-06-15T23:52:07.264Z,11.13
2017-06-15T23:54:34.825Z,9.47
2017-06-15T23:57:02.330Z,10.47
2017-06-15T23:59:29.842Z,8.87
